createdAt,value
2019-04-28T00:02:34.677Z,33.60
2019-04-28T00:05:33.242Z,33.60
2019-04-28T00:08:27.860Z,33.60
2019-04-28T00:11:27.965Z,33.50
2019-04-28T00:14:24.860Z,33.50
2019-04-28T00:17:21.686Z,33.50
2019-04-28T00:20:23.094Z,33.50
2019-04-28T00:23:36.069Z,33.50
2019-04-28T00:26:44.687Z,33.50
2019-04-28T00:29:45.687Z,33.40
2019-04-28T00:32:36.445Z,33.40
2019-04-28T00:35:35.082Z,33.40
2019-04-28T00:38:27.806Z,33.40
2019-04-28T00:41:23.497Z,33.30
2019-04-28T00:44:19.369Z,33.30
2019-04-28T00:47:14.754Z,33.30
2019-04-28T00:50:11.735Z,33.40
2019-04-28T00:53:06.130Z,33.30
2019-04-28T00:56:02.171Z,33.40
2019-04-28T00:58:57.666Z,33.40
2019-04-28T01:01:58.499Z,33.40
2019-04-28T01:04:54.807Z,33.50
2019-04-28T01:07:51.716Z,33.50
2019-04-28T01:10:48.322Z,33.50
2019-04-28T01:13:45.012Z,33.50
2019-04-28T01:16:46.532Z,33.50
2019-04-28T01:19:43.432Z,33.50
2019-04-28T01:22:50.664Z,33.60
2019-04-28T01:25:47.860Z,33.60
2019-04-28T01:28:43.763Z,33.60
2019-04-28T01:31:45.209Z,33.60
2019-04-28T01:34:40.785Z,33.70
2019-04-28T01:37:40.730Z,33.70
2019-04-28T01:40:36.173Z,33.70
2019-04-28T01:43:31.266Z,33.70
2019-04-28T01:46:26.619Z,33.70
2019-04-28T01:49:21.697Z,33.70
2019-04-28T01:52:17.292Z,33.70
2019-04-28T01:55:12.646Z,33.70
2019-04-28T01:58:09.483Z,33.70
2019-04-28T02:01:03.893Z,33.70
2019-04-28T02:04:00.313Z,33.70
2019-04-28T02:06:57.413Z,33.70
2019-04-28T02:09:54.434Z,33.70
2019-04-28T02:12:52.151Z,33.70
2019-04-28T02:15:50.109Z,33.80
2019-04-28T02:18:46.210Z,33.70
2019-04-28T02:22:11.316Z,33.80
2019-04-28T02:25:09.861Z,33.80
2019-04-28T02:28:05.630Z,33.80
2019-04-28T02:31:02.829Z,33.80
2019-04-28T02:34:00.777Z,33.90
2019-04-28T02:36:55.041Z,33.90
2019-04-28T02:39:51.584Z,33.90
2019-04-28T02:42:47.957Z,33.90
2019-04-28T02:45:44.191Z,33.90
2019-04-28T02:48:40.527Z,34.00
2019-04-28T02:51:41.834Z,34.00
2019-04-28T02:54:40.448Z,34.10
2019-04-28T02:57:35.868Z,34.10
2019-04-28T03:00:31.988Z,34.10
2019-04-28T03:03:27.845Z,34.20
2019-04-28T03:06:24.447Z,34.30
2019-04-28T03:09:20.376Z,34.30
2019-04-28T03:12:16.485Z,34.40
2019-04-28T03:15:12.542Z,34.40
2019-04-28T03:18:10.819Z,34.50
2019-04-28T03:21:04.801Z,34.60
2019-04-28T03:24:01.257Z,34.60
2019-04-28T03:27:03.558Z,34.70
2019-04-28T03:30:03.394Z,34.80
2019-04-28T03:33:11.073Z,34.80
2019-04-28T03:36:03.518Z,34.80
2019-04-28T03:38:54.049Z,34.90
2019-04-28T03:41:50.245Z,35.00
2019-04-28T03:44:45.075Z,35.10
2019-04-28T03:47:41.164Z,35.10
2019-04-28T03:50:37.388Z,35.20
2019-04-28T03:53:33.201Z,35.20
2019-04-28T03:56:31.022Z,35.30
2019-04-28T03:59:26.372Z,35.40
2019-04-28T04:02:23.574Z,35.50
2019-04-28T04:05:20.616Z,35.50
2019-04-28T04:08:20.595Z,35.60
2019-04-28T04:11:33.754Z,35.60
2019-04-28T04:14:36.739Z,35.70
2019-04-28T04:17:53.930Z,35.80
2019-04-28T04:20:51.229Z,35.90
2019-04-28T04:23:50.770Z,35.90
2019-04-28T04:26:44.950Z,36.00
2019-04-28T04:29:43.503Z,36.10
2019-04-28T04:32:40.883Z,36.20
2019-04-28T04:35:35.512Z,36.20
2019-04-28T04:38:33.554Z,36.30
2019-04-28T04:41:31.533Z,36.30
2019-04-28T04:44:31.037Z,36.40
2019-04-28T04:47:26.934Z,36.50
2019-04-28T04:50:24.103Z,36.60
2019-04-28T04:53:22.014Z,36.60
2019-04-28T04:56:21.035Z,36.70
2019-04-28T04:59:20.212Z,36.70
2019-04-28T05:02:40.972Z,36.80
2019-04-28T05:05:43.387Z,36.90
2019-04-28T05:08:41.605Z,36.90
2019-04-28T05:11:40.672Z,37.00
2019-04-28T05:14:39.537Z,37.00
2019-04-28T05:17:35.436Z,37.10
2019-04-28T05:20:32.586Z,37.20
2019-04-28T05:23:40.060Z,37.20
2019-04-28T05:26:42.582Z,37.30
2019-04-28T05:29:35.789Z,37.30
2019-04-28T05:32:42.573Z,37.40
2019-04-28T05:35:29.472Z,37.40
2019-04-28T05:38:26.739Z,37.50
2019-04-28T05:41:23.418Z,37.60
2019-04-28T05:44:21.900Z,37.60
2019-04-28T05:47:20.196Z,37.70
2019-04-28T05:50:21.752Z,37.80
2019-04-28T05:53:26.653Z,37.80
2019-04-28T05:56:44.833Z,37.90
2019-04-28T05:59:52.227Z,37.90
2019-04-28T06:02:56.448Z,38.00
2019-04-28T06:05:47.422Z,38.10
2019-04-28T06:08:50.849Z,38.20
2019-04-28T06:11:46.447Z,38.30
2019-04-28T06:14:43.326Z,38.40
2019-04-28T06:17:39.831Z,38.40
2019-04-28T06:20:36.995Z,38.50
2019-04-28T06:23:32.986Z,38.60
2019-04-28T06:26:29.170Z,38.70
2019-04-28T06:29:28.161Z,38.70
2019-04-28T06:32:25.357Z,38.70
2019-04-28T06:35:23.358Z,38.80
2019-04-28T06:38:22.354Z,38.80
2019-04-28T06:41:19.428Z,38.90
2019-04-28T06:44:15.195Z,38.90
2019-04-28T06:47:13.303Z,39.00
2019-04-28T06:50:12.107Z,39.00
2019-04-28T06:53:08.633Z,39.10
2019-04-28T06:56:04.645Z,39.20
2019-04-28T06:58:59.830Z,39.20
2019-04-28T07:01:57.575Z,39.30
2019-04-28T07:05:01.613Z,39.30
2019-04-28T07:07:53.341Z,39.40
2019-04-28T07:10:52.895Z,39.40
2019-04-28T07:13:52.180Z,39.50
2019-04-28T07:16:49.845Z,39.60
2019-04-28T07:19:49.676Z,39.60
2019-04-28T07:22:45.737Z,39.70
2019-04-28T07:25:43.579Z,39.70
2019-04-28T07:28:41.230Z,39.80
2019-04-28T07:31:39.061Z,39.90
2019-04-28T07:34:37.244Z,39.90
2019-04-28T07:37:34.833Z,40.00
2019-04-28T07:40:33.652Z,40.00
2019-04-28T07:43:33.256Z,40.20
2019-04-28T07:46:31.937Z,40.20
2019-04-28T07:49:29.275Z,40.20
2019-04-28T07:52:35.085Z,40.30
2019-04-28T07:55:32.069Z,40.40
2019-04-28T07:58:29.160Z,40.40
2019-04-28T08:01:27.039Z,40.50
2019-04-28T08:04:24.483Z,40.60
2019-04-28T08:07:24.571Z,40.60
2019-04-28T08:10:21.578Z,40.80
2019-04-28T08:13:20.330Z,40.90
2019-04-28T08:16:17.580Z,41.10
2019-04-28T08:19:13.321Z,41.30
2019-04-28T08:22:09.201Z,41.60
2019-04-28T08:25:06.219Z,41.70
2019-04-28T08:28:02.632Z,41.90
2019-04-28T08:31:00.034Z,42.10
2019-04-28T08:34:03.079Z,42.20
2019-04-28T08:37:01.739Z,42.40
2019-04-28T08:40:00.053Z,42.50
2019-04-28T08:42:59.388Z,42.70
2019-04-28T08:45:58.225Z,42.80
2019-04-28T08:48:56.424Z,43.00
2019-04-28T08:51:54.842Z,43.20
2019-04-28T08:54:52.177Z,43.50
2019-04-28T08:57:48.034Z,43.80
2019-04-28T09:00:45.934Z,44.10
2019-04-28T09:03:43.006Z,44.40
2019-04-28T09:06:39.071Z,44.70
2019-04-28T09:09:36.450Z,44.90
2019-04-28T09:12:33.130Z,45.20
2019-04-28T09:15:29.728Z,45.60
2019-04-28T09:18:27.894Z,45.90
2019-04-28T09:21:24.899Z,46.30
2019-04-28T09:24:23.361Z,46.50
2019-04-28T09:27:25.874Z,46.80
2019-04-28T09:30:26.755Z,46.90
2019-04-28T09:33:26.896Z,47.00
2019-04-28T09:36:24.066Z,47.00
2019-04-28T09:39:23.491Z,47.00
2019-04-28T09:42:35.991Z,47.00
2019-04-28T09:45:35.899Z,46.90
2019-04-28T09:48:31.347Z,46.70
2019-04-28T09:51:26.997Z,46.50
2019-04-28T09:54:24.047Z,46.30
2019-04-28T09:57:22.511Z,46.10
2019-04-28T10:00:21.438Z,46.00
2019-04-28T10:03:21.756Z,45.90
2019-04-28T10:06:23.034Z,45.70
2019-04-28T10:09:22.130Z,45.70
2019-04-28T10:12:27.162Z,45.70
2019-04-28T10:15:19.318Z,45.70
2019-04-28T10:18:15.334Z,45.70
2019-04-28T10:21:13.412Z,45.60
2019-04-28T10:24:11.314Z,45.50
2019-04-28T10:27:09.426Z,45.40
2019-04-28T10:30:06.240Z,45.40
2019-04-28T10:33:03.513Z,45.30
2019-04-28T10:36:00.101Z,45.30
2019-04-28T10:38:58.383Z,45.20
2019-04-28T10:41:55.069Z,45.10
2019-04-28T10:44:52.575Z,45.00
2019-04-28T10:47:49.797Z,44.90
2019-04-28T10:50:47.439Z,44.80
2019-04-28T10:53:45.120Z,44.70
2019-04-28T10:56:42.151Z,44.60
2019-04-28T10:59:39.264Z,44.60
2019-04-28T11:02:35.747Z,44.70
2019-04-28T11:05:56.481Z,44.70
2019-04-28T11:09:30.054Z,44.70
2019-04-28T11:12:21.156Z,44.70
2019-04-28T11:15:21.741Z,44.70
2019-04-28T11:18:17.832Z,44.70
2019-04-28T11:21:14.377Z,44.70
2019-04-28T11:24:12.279Z,44.70
2019-04-28T11:27:09.498Z,44.70
2019-04-28T11:30:07.261Z,44.70
2019-04-28T11:33:24.536Z,44.70
2019-04-28T11:36:22.901Z,44.70
2019-04-28T11:39:23.826Z,44.60
2019-04-28T11:42:20.177Z,44.50
2019-04-28T11:45:16.721Z,44.40
2019-04-28T11:48:13.606Z,44.30
2019-04-28T11:51:11.383Z,44.20
2019-04-28T11:54:08.734Z,44.00
2019-04-28T11:57:06.768Z,43.90
2019-04-28T12:00:05.264Z,43.70
2019-04-28T12:03:03.002Z,43.50
2019-04-28T12:06:00.888Z,43.30
2019-04-28T12:09:00.009Z,43.20
2019-04-28T12:11:57.902Z,43.00
2019-04-28T12:15:23.544Z,42.90
2019-04-28T12:18:41.805Z,42.80
2019-04-28T12:21:39.961Z,42.60
2019-04-28T12:24:38.484Z,42.50
2019-04-28T12:27:37.430Z,42.40
2019-04-28T12:30:34.772Z,42.30
2019-04-28T12:33:32.719Z,42.10
2019-04-28T12:36:29.351Z,42.00
2019-04-28T12:39:28.295Z,41.90
2019-04-28T12:42:26.382Z,41.80
2019-04-28T12:45:34.464Z,41.70
2019-04-28T12:48:24.021Z,41.60
2019-04-28T12:51:20.925Z,41.50
2019-04-28T12:54:18.579Z,41.40
2019-04-28T12:57:14.961Z,41.20
2019-04-28T13:00:44.256Z,41.10
2019-04-28T13:03:46.278Z,41.00
2019-04-28T13:06:44.651Z,40.90
2019-04-28T13:09:41.848Z,40.80
2019-04-28T13:12:38.628Z,40.70
2019-04-28T13:15:35.647Z,40.60
2019-04-28T13:18:33.110Z,40.60
2019-04-28T13:21:29.323Z,40.40
2019-04-28T13:24:25.379Z,40.30
2019-04-28T13:27:21.781Z,40.30
2019-04-28T13:30:17.674Z,40.20
2019-04-28T13:33:15.744Z,40.10
2019-04-28T13:36:15.007Z,40.00
2019-04-28T13:39:11.669Z,40.00
2019-04-28T13:42:09.282Z,40.00
2019-04-28T13:45:09.284Z,39.90
2019-04-28T13:48:06.012Z,39.80
2019-04-28T13:51:02.170Z,39.70
2019-04-28T13:54:00.804Z,39.70
2019-04-28T13:56:57.848Z,39.70
2019-04-28T13:59:55.258Z,39.70
2019-04-28T14:03:07.438Z,39.60
2019-04-28T14:06:07.775Z,39.60
2019-04-28T14:09:03.384Z,39.60
2019-04-28T14:12:01.387Z,39.50
2019-04-28T14:14:56.554Z,39.50
2019-04-28T14:17:53.023Z,39.50
2019-04-28T14:20:49.413Z,39.40
2019-04-28T14:23:46.084Z,39.40
2019-04-28T14:26:45.559Z,39.40
2019-04-28T14:29:41.992Z,39.30
2019-04-28T14:32:38.526Z,39.30
2019-04-28T14:35:35.834Z,39.20
2019-04-28T14:38:34.120Z,39.20
2019-04-28T14:41:34.742Z,39.20
2019-04-28T14:44:37.871Z,39.10
2019-04-28T14:47:37.422Z,39.10
2019-04-28T14:50:36.628Z,39.00
2019-04-28T14:53:35.757Z,39.00
2019-04-28T14:56:34.011Z,38.90
2019-04-28T14:59:30.512Z,38.90
2019-04-28T15:02:35.948Z,38.90
2019-04-28T15:05:48.325Z,38.80
2019-04-28T15:09:01.618Z,38.80
2019-04-28T15:12:02.107Z,38.70
2019-04-28T15:14:59.231Z,38.70
2019-04-28T15:17:55.305Z,38.60
2019-04-28T15:20:50.636Z,38.60
2019-04-28T15:23:46.892Z,38.50
2019-04-28T15:26:42.199Z,38.50
2019-04-28T15:29:38.972Z,38.40
2019-04-28T15:32:38.044Z,38.40
2019-04-28T15:35:35.106Z,38.30
2019-04-28T15:38:32.534Z,38.30
2019-04-28T15:41:28.457Z,38.30
2019-04-28T15:44:25.841Z,38.20
2019-04-28T15:47:21.745Z,38.20
2019-04-28T15:50:19.445Z,38.20
2019-04-28T15:53:20.605Z,38.10
2019-04-28T15:56:26.455Z,38.10
2019-04-28T15:59:28.075Z,38.00
2019-04-28T16:02:26.681Z,38.10
2019-04-28T16:05:28.348Z,38.00
2019-04-28T16:08:25.791Z,37.90
2019-04-28T16:11:21.685Z,38.00
2019-04-28T16:14:19.221Z,37.90
2019-04-28T16:17:19.835Z,37.90
2019-04-28T16:20:15.751Z,37.90
2019-04-28T16:23:14.287Z,37.80
2019-04-28T16:26:12.361Z,37.80
2019-04-28T16:29:09.016Z,37.80
2019-04-28T16:32:05.725Z,37.70
2019-04-28T16:35:03.138Z,37.70
2019-04-28T16:37:59.471Z,37.70
2019-04-28T16:41:07.866Z,37.60
2019-04-28T16:44:06.822Z,37.60
2019-04-28T16:47:02.780Z,37.60
2019-04-28T16:49:58.237Z,37.60
2019-04-28T16:52:53.452Z,37.60
2019-04-28T16:56:17.976Z,37.60
2019-04-28T16:59:33.348Z,37.50
2019-04-28T17:02:37.377Z,37.50
2019-04-28T17:05:33.421Z,37.50
2019-04-28T17:08:28.933Z,37.40
2019-04-28T17:11:26.274Z,37.40
2019-04-28T17:14:24.762Z,37.40
2019-04-28T17:17:21.718Z,37.40
2019-04-28T17:20:18.824Z,37.40
2019-04-28T17:23:15.853Z,37.40
2019-04-28T17:41:25.125Z,37.30
2019-04-28T17:44:19.944Z,37.80
2019-04-28T17:47:15.932Z,37.70
2019-04-28T17:50:13.746Z,37.60
2019-04-28T17:53:10.114Z,37.60
2019-04-28T17:56:04.944Z,37.50
2019-04-28T17:59:02.456Z,37.40
2019-04-28T18:02:19.787Z,37.40
2019-04-28T18:05:38.172Z,37.30
2019-04-28T18:08:36.408Z,37.20
2019-04-28T18:11:33.540Z,37.20
2019-04-28T18:14:28.854Z,37.10
2019-04-28T18:17:42.771Z,37.10
2019-04-28T18:20:41.268Z,37.00
2019-04-28T18:23:39.001Z,37.00
2019-04-28T18:26:37.323Z,37.00
2019-04-28T18:29:32.684Z,37.00
2019-04-28T18:32:59.861Z,36.90
2019-04-28T18:35:59.912Z,36.90
2019-04-28T18:38:59.559Z,36.90
2019-04-28T18:42:09.746Z,36.80
2019-04-28T18:45:05.013Z,36.80
2019-04-28T18:48:02.114Z,36.80
2019-04-28T18:50:59.414Z,36.70
2019-04-28T18:53:55.960Z,36.70
2019-04-28T18:56:52.078Z,36.70
2019-04-28T18:59:48.476Z,36.70
2019-04-28T19:02:48.018Z,36.70
2019-04-28T19:05:44.611Z,36.60
2019-04-28T19:08:49.375Z,36.60
2019-04-28T19:11:50.722Z,36.60
2019-04-28T19:14:51.445Z,36.60
2019-04-28T19:17:53.845Z,36.60
2019-04-28T19:20:50.704Z,36.60
2019-04-28T19:23:47.045Z,36.50
2019-04-28T19:26:44.526Z,36.50
2019-04-28T19:29:40.802Z,36.50
2019-04-28T19:32:36.809Z,36.50
2019-04-28T19:35:33.362Z,36.50
2019-04-28T19:38:29.555Z,36.40
2019-04-28T19:41:26.548Z,36.40
2019-04-28T19:44:22.271Z,36.40
2019-04-28T19:47:18.170Z,36.40
2019-04-28T19:50:14.567Z,36.30
2019-04-28T19:53:10.643Z,36.30
2019-04-28T19:56:11.940Z,36.30
2019-04-28T19:59:15.670Z,36.30
2019-04-28T20:02:11.749Z,36.30
2019-04-28T20:05:08.700Z,36.20
2019-04-28T20:08:03.902Z,36.20
2019-04-28T20:10:59.916Z,36.20
2019-04-28T20:13:56.938Z,36.10
2019-04-28T20:16:53.125Z,36.10
2019-04-28T20:19:48.518Z,36.10
2019-04-28T20:22:44.815Z,36.00
2019-04-28T20:25:42.445Z,36.00
2019-04-28T20:28:38.332Z,35.90
2019-04-28T20:31:33.414Z,35.80
2019-04-28T20:34:29.488Z,35.90
2019-04-28T20:37:33.682Z,35.80
2019-04-28T20:40:36.800Z,35.80
2019-04-28T20:43:35.239Z,35.70
2019-04-28T20:46:33.168Z,35.70
2019-04-28T20:49:31.184Z,35.70
2019-04-28T20:52:28.987Z,35.60
2019-04-28T20:55:28.142Z,35.60
2019-04-28T20:58:26.231Z,35.60
2019-04-28T21:01:21.981Z,35.60
2019-04-28T21:04:21.053Z,35.60
2019-04-28T21:07:20.261Z,35.60
2019-04-28T21:10:19.777Z,35.50
2019-04-28T21:13:17.160Z,35.50
2019-04-28T21:16:17.057Z,35.50
2019-04-28T21:19:16.344Z,35.50
2019-04-28T21:22:13.746Z,35.50
2019-04-28T21:25:12.363Z,35.50
2019-04-28T21:28:12.133Z,35.50
2019-04-28T21:31:12.305Z,35.40
2019-04-28T21:34:12.325Z,35.40
2019-04-28T21:37:08.441Z,35.40
2019-04-28T21:40:05.038Z,35.30
2019-04-28T21:43:05.535Z,35.30
2019-04-28T21:46:27.679Z,35.30
2019-04-28T21:49:28.837Z,35.20
2019-04-28T21:52:24.307Z,35.20
2019-04-28T21:55:19.894Z,35.20
2019-04-28T21:58:15.283Z,35.10
2019-04-28T22:01:12.421Z,35.10
2019-04-28T22:04:08.827Z,35.00
2019-04-28T22:07:04.549Z,35.00
2019-04-28T22:10:01.354Z,34.90
2019-04-28T22:12:57.973Z,34.90
2019-04-28T22:15:54.269Z,34.90
2019-04-28T22:18:51.418Z,34.80
2019-04-28T22:21:47.828Z,34.80
2019-04-28T22:24:48.951Z,34.80
2019-04-28T22:27:46.190Z,34.70
2019-04-28T22:30:42.390Z,34.70
2019-04-28T22:33:38.531Z,34.70
2019-04-28T22:36:35.627Z,34.70
2019-04-28T22:39:32.111Z,34.70
2019-04-28T22:42:30.406Z,34.70
2019-04-28T22:45:28.463Z,34.60
2019-04-28T22:48:26.851Z,34.60
2019-04-28T22:51:24.410Z,34.60
2019-04-28T22:54:26.780Z,34.50
2019-04-28T22:57:29.790Z,34.50
2019-04-28T23:00:47.986Z,34.50
2019-04-28T23:03:53.765Z,34.50
2019-04-28T23:06:51.366Z,34.40
2019-04-28T23:09:49.223Z,34.40
2019-04-28T23:12:45.536Z,34.40
2019-04-28T23:15:43.399Z,34.40
2019-04-28T23:18:40.430Z,34.30
2019-04-28T23:21:57.974Z,34.30
2019-04-28T23:24:52.881Z,34.40
2019-04-28T23:27:48.060Z,34.30
2019-04-28T23:30:45.884Z,34.30
2019-04-28T23:33:41.443Z,34.30
2019-04-28T23:36:36.842Z,34.20
2019-04-28T23:39:31.578Z,34.20
2019-04-28T23:42:32.072Z,34.20
2019-04-28T23:45:27.793Z,34.20
2019-04-28T23:48:24.330Z,34.20
2019-04-28T23:51:34.135Z,34.20
2019-04-28T23:54:29.610Z,34.20
2019-04-28T23:57:25.586Z,34.20
